createdAt,value
2018-07-30T00:00:18.050Z,0
2018-07-30T00:01:18.052Z,0
2018-07-30T00:02:18.054Z,0
2018-07-30T00:03:18.323Z,0
2018-07-30T00:04:17.811Z,0
2018-07-30T00:05:18.168Z,0
2018-07-30T00:06:18.120Z,0
2018-07-30T00:07:18.080Z,0
2018-07-30T00:08:18.086Z,0
2018-07-30T00:09:18.099Z,0
2018-07-30T00:10:18.348Z,0
2018-07-30T00:11:18.088Z,0
2018-07-30T00:12:18.084Z,0
2018-07-30T00:13:18.103Z,0
2018-07-30T00:14:18.563Z,0
2018-07-30T00:15:17.849Z,0
2018-07-30T00:16:18.359Z,0
2018-07-30T00:17:17.856Z,0
2018-07-30T00:18:18.910Z,0
2018-07-30T00:19:18.380Z,0
2018-07-30T00:20:18.388Z,0
2018-07-30T00:21:18.419Z,0
2018-07-30T00:22:18.175Z,0
2018-07-30T00:23:18.401Z,0
2018-07-30T00:24:18.387Z,0
2018-07-30T00:25:18.140Z,0
2018-07-30T00:26:17.894Z,0
2018-07-30T00:27:18.160Z,0
2018-07-30T00:28:18.407Z,0
2018-07-30T00:29:18.404Z,0
2018-07-30T00:30:17.887Z,0
2018-07-30T00:31:18.205Z,0
2018-07-30T00:32:17.923Z,0
2018-07-30T00:33:18.181Z,0
2018-07-30T00:34:18.156Z,0
2018-07-30T00:35:18.160Z,0
2018-07-30T00:36:17.910Z,0
2018-07-30T00:37:18.172Z,0
2018-07-30T00:38:18.457Z,0
2018-07-30T00:39:17.926Z,0
2018-07-30T00:40:18.435Z,0
2018-07-30T00:41:18.183Z,0
2018-07-30T00:42:18.188Z,0
2018-07-30T00:43:17.680Z,0
2018-07-30T00:44:17.944Z,0
2018-07-30T00:45:17.955Z,0
2018-07-30T00:46:17.955Z,0
2018-07-30T00:47:18.466Z,0
2018-07-30T00:48:18.829Z,0
2018-07-30T00:49:18.206Z,0
2018-07-30T00:50:18.246Z,0
2018-07-30T00:51:18.227Z,0
2018-07-30T00:52:17.982Z,0
2018-07-30T00:53:18.211Z,0
2018-07-30T00:54:18.217Z,0
2018-07-30T00:55:18.482Z,0
2018-07-30T00:56:18.226Z,0
2018-07-30T00:57:17.980Z,0
2018-07-30T00:58:18.482Z,0
2018-07-30T00:59:18.489Z,0
2018-07-30T01:00:18.500Z,0
2018-07-30T01:01:18.257Z,0
2018-07-30T01:02:18.287Z,0
2018-07-30T01:03:18.508Z,0
2018-07-30T01:04:18.016Z,0
2018-07-30T01:05:18.052Z,0
2018-07-30T01:06:17.993Z,0
2018-07-30T01:07:18.287Z,0
2018-07-30T01:08:18.540Z,0
2018-07-30T01:09:17.749Z,0
2018-07-30T01:10:18.648Z,0
2018-07-30T01:11:18.292Z,0
2018-07-30T01:12:18.147Z,0
2018-07-30T01:13:18.027Z,0
2018-07-30T01:14:18.345Z,0
2018-07-30T01:15:18.029Z,0
2018-07-30T01:16:18.030Z,0
2018-07-30T01:17:18.040Z,0
2018-07-30T01:18:18.314Z,0
2018-07-30T01:19:18.550Z,0
2018-07-30T01:20:18.580Z,0
2018-07-30T01:21:18.317Z,0
2018-07-30T01:22:18.043Z,0
2018-07-30T01:23:18.317Z,0
2018-07-30T01:24:18.578Z,0
2018-07-30T01:25:18.314Z,0
2018-07-30T01:26:18.607Z,0
2018-07-30T01:27:17.820Z,0
2018-07-30T01:28:18.344Z,0
2018-07-30T01:29:18.618Z,0
2018-07-30T01:30:18.129Z,0
2018-07-30T01:31:18.612Z,0
2018-07-30T01:32:17.818Z,0
2018-07-30T01:33:18.084Z,0
2018-07-30T01:34:18.081Z,0
2018-07-30T01:35:18.098Z,0
2018-07-30T01:36:18.350Z,0
2018-07-30T01:37:18.347Z,0
2018-07-30T01:38:18.611Z,0
2018-07-30T01:39:18.095Z,0
2018-07-30T01:40:18.365Z,0
2018-07-30T01:41:18.104Z,0
2018-07-30T01:42:18.423Z,0
2018-07-30T01:43:18.370Z,0
2018-07-30T01:44:18.372Z,0
2018-07-30T01:45:18.120Z,0
2018-07-30T01:46:18.367Z,0
2018-07-30T01:47:18.358Z,0
2018-07-30T01:48:18.369Z,0
2018-07-30T01:49:18.126Z,0
2018-07-30T01:50:18.121Z,0
2018-07-30T01:51:18.637Z,0
2018-07-30T01:52:18.634Z,0
2018-07-30T01:53:18.391Z,0
2018-07-30T01:54:18.157Z,0
2018-07-30T01:55:18.422Z,0
2018-07-30T01:56:18.152Z,0
2018-07-30T01:57:17.897Z,0
2018-07-30T01:58:18.419Z,0
2018-07-30T01:59:18.145Z,0
2018-07-30T02:00:18.150Z,0
2018-07-30T02:01:18.410Z,0
2018-07-30T02:02:18.419Z,0
2018-07-30T02:03:18.415Z,0
2018-07-30T02:04:18.160Z,0
2018-07-30T02:05:18.172Z,0
2018-07-30T02:06:18.179Z,0
2018-07-30T02:07:18.437Z,0
2018-07-30T02:08:18.442Z,0
2018-07-30T02:09:18.697Z,0
2018-07-30T02:10:18.452Z,0
2018-07-30T02:11:18.451Z,0
2018-07-30T02:12:18.704Z,0
2018-07-30T02:13:18.475Z,0
2018-07-30T02:14:17.933Z,0
2018-07-30T02:15:18.445Z,0
2018-07-30T02:16:17.941Z,0
2018-07-30T02:17:18.725Z,0
2018-07-30T02:18:18.457Z,0
2018-07-30T02:19:18.706Z,0
2018-07-30T02:20:18.482Z,0
2018-07-30T02:21:18.723Z,0
2018-07-30T02:22:18.237Z,0
2018-07-30T02:23:18.746Z,0
2018-07-30T02:24:18.223Z,0
2018-07-30T02:25:18.491Z,0
2018-07-30T02:26:18.218Z,0
2018-07-30T02:27:18.491Z,0
2018-07-30T02:28:18.740Z,0
2018-07-30T02:29:17.968Z,0
2018-07-30T02:30:18.794Z,0
2018-07-30T02:31:18.490Z,0
2018-07-30T02:32:18.245Z,0
2018-07-30T02:33:18.542Z,0
2018-07-30T02:34:18.760Z,0
2018-07-30T02:35:18.781Z,0
2018-07-30T02:36:18.762Z,0
2018-07-30T02:37:18.530Z,0
2018-07-30T02:38:18.787Z,0
2018-07-30T02:39:18.772Z,0
2018-07-30T02:40:18.514Z,0
2018-07-30T02:41:18.791Z,0
2018-07-30T02:42:18.021Z,0
2018-07-30T02:43:18.293Z,0
2018-07-30T02:44:18.541Z,0
2018-07-30T02:45:18.542Z,0
2018-07-30T02:46:18.276Z,0
2018-07-30T02:47:18.537Z,0
2018-07-30T02:48:18.544Z,0
2018-07-30T02:49:18.284Z,0
2018-07-30T02:50:18.811Z,0
2018-07-30T02:51:18.561Z,0
2018-07-30T02:52:18.812Z,0
2018-07-30T02:53:18.545Z,0
2018-07-30T02:54:18.854Z,0
2018-07-30T02:55:18.839Z,0
2018-07-30T02:56:18.823Z,0
2018-07-30T02:57:18.050Z,0
2018-07-30T02:58:18.305Z,0
2018-07-30T02:59:18.576Z,0
2018-07-30T03:00:18.310Z,0
2018-07-30T03:01:18.818Z,0
2018-07-30T03:02:18.588Z,0
2018-07-30T03:03:18.612Z,0
2018-07-30T03:04:18.320Z,0
2018-07-30T03:05:18.821Z,0
2018-07-30T03:06:18.579Z,0
2018-07-30T03:07:18.618Z,0
2018-07-30T03:08:18.579Z,0
2018-07-30T03:09:18.663Z,0
2018-07-30T03:10:18.347Z,0
2018-07-30T03:11:18.342Z,4
2018-07-30T03:12:18.352Z,4
2018-07-30T03:13:18.863Z,4
2018-07-30T03:14:18.596Z,0
2018-07-30T03:15:18.657Z,0
2018-07-30T03:16:18.344Z,4
2018-07-30T03:17:18.357Z,4
2018-07-30T03:18:18.874Z,4
2018-07-30T03:19:19.111Z,4
2018-07-30T03:20:18.895Z,4
2018-07-30T03:21:18.607Z,8
2018-07-30T03:22:18.608Z,8
2018-07-30T03:23:18.360Z,8
2018-07-30T03:24:18.366Z,12
2018-07-30T03:25:18.106Z,12
2018-07-30T03:26:18.875Z,12
2018-07-30T03:27:18.626Z,12
2018-07-30T03:28:18.629Z,16
2018-07-30T03:29:18.877Z,20
2018-07-30T03:30:18.882Z,20
2018-07-30T03:31:18.940Z,24
2018-07-30T03:32:18.635Z,28
2018-07-30T03:33:18.652Z,32
2018-07-30T03:34:18.400Z,36
2018-07-30T03:35:18.396Z,40
2018-07-30T03:36:18.388Z,44
2018-07-30T03:37:18.654Z,52
2018-07-30T03:38:18.930Z,60
2018-07-30T03:39:18.650Z,64
2018-07-30T03:40:18.654Z,76
2018-07-30T03:41:18.653Z,84
2018-07-30T03:42:18.881Z,92
2018-07-30T03:43:18.416Z,104
2018-07-30T03:44:18.663Z,120
2018-07-30T03:45:18.937Z,132
2018-07-30T03:46:18.935Z,144
2018-07-30T03:47:18.662Z,160
2018-07-30T03:48:18.933Z,176
2018-07-30T03:49:19.074Z,196
2018-07-30T03:50:18.935Z,216
2018-07-30T03:51:18.422Z,236
2018-07-30T03:52:18.431Z,256
2018-07-30T03:53:18.447Z,276
2018-07-30T03:54:18.955Z,300
2018-07-30T03:55:18.691Z,324
2018-07-30T03:56:18.685Z,352
2018-07-30T03:57:18.687Z,376
2018-07-30T03:58:18.695Z,404
2018-07-30T03:59:18.451Z,432
2018-07-30T04:00:19.039Z,464
2018-07-30T04:01:18.963Z,496
2018-07-30T04:02:18.694Z,528
2018-07-30T04:03:18.957Z,564
2018-07-30T04:04:18.449Z,596
2018-07-30T04:05:18.722Z,632
2018-07-30T04:06:19.389Z,676
2018-07-30T04:07:18.515Z,720
2018-07-30T04:08:18.978Z,768
2018-07-30T04:09:19.027Z,812
2018-07-30T04:10:18.991Z,852
2018-07-30T04:11:18.762Z,892
2018-07-30T04:12:18.728Z,932
2018-07-30T04:13:18.733Z,980
2018-07-30T04:14:18.465Z,1016
2018-07-30T04:15:18.716Z,1068
2018-07-30T04:16:18.221Z,1120
2018-07-30T04:17:18.994Z,1176
2018-07-30T04:18:18.728Z,1232
2018-07-30T04:19:18.735Z,1284
2018-07-30T04:20:18.738Z,1344
2018-07-30T04:21:19.006Z,1408
2018-07-30T04:22:19.293Z,1456
2018-07-30T04:23:19.008Z,1540
2018-07-30T04:24:19.027Z,2060
2018-07-30T04:25:18.743Z,2780
2018-07-30T04:26:18.530Z,3160
2018-07-30T04:27:18.496Z,3312
2018-07-30T04:28:18.518Z,3432
2018-07-30T04:29:18.523Z,3560
2018-07-30T04:30:18.253Z,3672
2018-07-30T04:31:19.020Z,3836
2018-07-30T04:32:18.771Z,3960
2018-07-30T04:33:18.774Z,4080
2018-07-30T04:34:18.782Z,4196
2018-07-30T04:35:19.026Z,4328
2018-07-30T04:36:19.031Z,4436
2018-07-30T04:37:18.520Z,4488
2018-07-30T04:38:19.033Z,4636
2018-07-30T04:39:18.545Z,4784
2018-07-30T04:40:18.540Z,4936
2018-07-30T04:41:18.784Z,5064
2018-07-30T04:42:19.049Z,5192
2018-07-30T04:43:19.060Z,5112
2018-07-30T04:44:18.817Z,4740
2018-07-30T04:45:18.807Z,4336
2018-07-30T04:46:18.793Z,4076
2018-07-30T04:47:18.553Z,3964
2018-07-30T04:48:19.134Z,4268
2018-07-30T04:49:19.248Z,4844
2018-07-30T04:50:19.347Z,5312
2018-07-30T04:51:18.844Z,5692
2018-07-30T04:52:18.838Z,6052
2018-07-30T04:53:18.577Z,6212
2018-07-30T04:54:18.603Z,6292
2018-07-30T04:55:18.608Z,6364
2018-07-30T04:56:18.853Z,6468
2018-07-30T04:57:18.848Z,6564
2018-07-30T04:58:18.602Z,6652
2018-07-30T04:59:18.347Z,6748
2018-07-30T05:00:18.353Z,7380
2018-07-30T05:01:18.891Z,7404
2018-07-30T05:02:18.356Z,7412
2018-07-30T05:03:18.368Z,7496
2018-07-30T05:04:19.152Z,7608
2018-07-30T05:05:18.886Z,7688
2018-07-30T05:06:18.890Z,7744
2018-07-30T05:07:18.914Z,7708
2018-07-30T05:08:18.941Z,7704
2018-07-30T05:09:18.932Z,7676
2018-07-30T05:10:19.164Z,7660
2018-07-30T05:11:19.381Z,7608
2018-07-30T05:12:18.955Z,7520
2018-07-30T05:13:18.909Z,7396
2018-07-30T05:14:18.647Z,7280
2018-07-30T05:15:18.941Z,7088
2018-07-30T05:16:18.683Z,6856
2018-07-30T05:17:19.219Z,6472
2018-07-30T05:18:18.959Z,6032
2018-07-30T05:19:19.081Z,5612
2018-07-30T05:20:19.241Z,5280
2018-07-30T05:21:19.229Z,5060
2018-07-30T05:22:18.999Z,4908
2018-07-30T05:23:18.981Z,4804
2018-07-30T05:24:18.995Z,4756
2018-07-30T05:25:19.243Z,4740
2018-07-30T05:26:18.750Z,4740
2018-07-30T05:27:19.015Z,4704
2018-07-30T05:28:19.244Z,4724
2018-07-30T05:29:18.750Z,4832
2018-07-30T05:30:18.767Z,4920
2018-07-30T05:31:19.276Z,4984
2018-07-30T05:32:19.289Z,5044
2018-07-30T05:33:19.064Z,5100
2018-07-30T05:34:18.763Z,5208
2018-07-30T05:35:18.791Z,5632
2018-07-30T05:36:19.032Z,7088
2018-07-30T05:37:18.911Z,7452
2018-07-30T05:38:19.287Z,5572
2018-07-30T05:39:19.288Z,11004
2018-07-30T05:40:19.049Z,11140
2018-07-30T05:41:19.052Z,10900
2018-07-30T05:42:19.040Z,11940
2018-07-30T05:43:19.302Z,11984
2018-07-30T05:44:19.332Z,12064
2018-07-30T05:45:19.073Z,12068
2018-07-30T05:46:19.076Z,12196
2018-07-30T05:47:19.342Z,12280
2018-07-30T05:48:19.344Z,12312
2018-07-30T05:49:20.957Z,12416
2018-07-30T05:50:19.213Z,12488
2018-07-30T05:51:19.094Z,12524
2018-07-30T05:52:19.369Z,12588
2018-07-30T05:53:19.103Z,12584
2018-07-30T05:54:19.384Z,12672
2018-07-30T05:55:18.862Z,12724
2018-07-30T05:56:19.137Z,12772
2018-07-30T05:57:19.134Z,12844
2018-07-30T05:58:19.391Z,12908
2018-07-30T05:59:19.428Z,12956
2018-07-30T06:00:19.409Z,12996
2018-07-30T06:01:19.168Z,13012
2018-07-30T06:02:18.914Z,13136
2018-07-30T06:03:19.432Z,13144
2018-07-30T06:04:19.447Z,13152
2018-07-30T06:05:19.188Z,13260
2018-07-30T06:06:19.464Z,13352
2018-07-30T06:07:19.467Z,13388
2018-07-30T06:08:19.217Z,13424
2018-07-30T06:09:18.959Z,13488
2018-07-30T06:10:19.226Z,13496
2018-07-30T06:11:19.234Z,13476
2018-07-30T06:12:19.512Z,13508
2018-07-30T06:13:19.520Z,13528
2018-07-30T06:14:19.266Z,13612
2018-07-30T06:15:19.516Z,13668
2018-07-30T06:16:19.524Z,13704
2018-07-30T06:17:19.531Z,13748
2018-07-30T06:18:19.538Z,13740
2018-07-30T06:19:19.299Z,13828
2018-07-30T06:20:19.327Z,13856
2018-07-30T06:21:19.560Z,13884
2018-07-30T06:22:19.324Z,11248
2018-07-30T06:23:19.329Z,13960
2018-07-30T06:24:19.089Z,13968
2018-07-30T06:25:19.326Z,14052
2018-07-30T06:26:19.694Z,13984
2018-07-30T06:27:19.142Z,14044
2018-07-30T06:28:19.399Z,14140
2018-07-30T06:29:19.112Z,14176
2018-07-30T06:30:19.631Z,14212
2018-07-30T06:31:19.648Z,14152
2018-07-30T06:32:19.647Z,14172
2018-07-30T06:33:19.399Z,14164
2018-07-30T06:34:19.423Z,14192
2018-07-30T06:35:19.698Z,14228
2018-07-30T06:36:19.677Z,14244
2018-07-30T06:37:19.432Z,14324
2018-07-30T06:38:19.475Z,14324
2018-07-30T06:39:19.439Z,14332
2018-07-30T06:40:19.202Z,14300
2018-07-30T06:41:19.729Z,14228
2018-07-30T06:42:19.219Z,14248
2018-07-30T06:43:19.498Z,14260
2018-07-30T06:44:19.767Z,13944
2018-07-30T06:45:19.765Z,13804
2018-07-30T06:46:19.766Z,14452
2018-07-30T06:47:19.262Z,14416
2018-07-30T06:48:19.780Z,14388
2018-07-30T06:49:19.679Z,14360
2018-07-30T06:50:19.543Z,14372
2018-07-30T06:51:19.549Z,14432
2018-07-30T06:52:19.559Z,14432
2018-07-30T06:53:19.766Z,14440
2018-07-30T06:54:19.616Z,14452
2018-07-30T06:55:19.598Z,14476
2018-07-30T06:56:19.892Z,14500
2018-07-30T06:57:19.855Z,14492
2018-07-30T06:58:19.627Z,14488
2018-07-30T06:59:19.633Z,14460
2018-07-30T07:00:19.905Z,14516
2018-07-30T07:01:19.471Z,14504
2018-07-30T07:02:19.676Z,14568
2018-07-30T07:03:20.298Z,14568
2018-07-30T07:04:19.690Z,14500
2018-07-30T07:05:19.716Z,14496
2018-07-30T07:06:19.952Z,14444
2018-07-30T07:07:19.199Z,14404
2018-07-30T07:08:19.719Z,14392
2018-07-30T07:09:19.720Z,14324
2018-07-30T07:10:19.742Z,14316
2018-07-30T07:11:19.484Z,13744
2018-07-30T07:12:19.505Z,13592
2018-07-30T07:13:19.769Z,14012
2018-07-30T07:14:19.776Z,13292
2018-07-30T07:15:19.776Z,12764
2018-07-30T07:16:19.797Z,11944
2018-07-30T07:17:20.084Z,10680
2018-07-30T07:18:19.815Z,10448
2018-07-30T07:19:20.667Z,10668
2018-07-30T07:20:19.840Z,10932
2018-07-30T07:21:20.448Z,11436
2018-07-30T07:22:20.129Z,12164
2018-07-30T07:23:20.133Z,12584
2018-07-30T07:24:19.643Z,12800
2018-07-30T07:25:20.150Z,12808
2018-07-30T07:26:19.916Z,12812
2018-07-30T07:27:19.969Z,12920
2018-07-30T07:28:20.199Z,13288
2018-07-30T07:29:20.240Z,13532
2018-07-30T07:30:20.208Z,13692
2018-07-30T07:31:19.979Z,9432
2018-07-30T07:32:20.208Z,11884
2018-07-30T07:33:19.691Z,14020
2018-07-30T07:34:19.978Z,13456
2018-07-30T07:35:19.993Z,13676
2018-07-30T07:36:20.282Z,13724
2018-07-30T07:37:19.749Z,14460
2018-07-30T07:38:19.762Z,14452
2018-07-30T07:39:19.782Z,14204
2018-07-30T07:40:20.621Z,13700
2018-07-30T07:41:19.779Z,13932
2018-07-30T07:42:20.028Z,13896
2018-07-30T07:43:19.817Z,13888
2018-07-30T07:44:20.070Z,13828
2018-07-30T07:45:19.821Z,13792
2018-07-30T07:46:19.823Z,13716
2018-07-30T07:47:20.381Z,13684
2018-07-30T07:48:20.803Z,13616
2018-07-30T07:49:20.373Z,13488
2018-07-30T07:50:20.289Z,13300
2018-07-30T07:51:20.587Z,13268
2018-07-30T07:52:20.141Z,13384
2018-07-30T07:53:20.137Z,13496
2018-07-30T07:54:20.415Z,13508
2018-07-30T07:55:20.172Z,13544
2018-07-30T07:56:19.917Z,13560
2018-07-30T07:57:19.963Z,13476
2018-07-30T07:58:19.931Z,13404
2018-07-30T07:59:20.202Z,13408
2018-07-30T08:00:20.215Z,13328
2018-07-30T08:01:20.215Z,13272
2018-07-30T08:02:20.236Z,13296
2018-07-30T08:03:20.512Z,13320
2018-07-30T08:04:20.553Z,13228
2018-07-30T08:05:20.282Z,13164
2018-07-30T08:06:20.610Z,13104
2018-07-30T08:07:20.047Z,13092
2018-07-30T08:08:20.333Z,13072
2018-07-30T08:09:20.308Z,13024
2018-07-30T08:10:20.582Z,12992
2018-07-30T08:11:20.088Z,12876
2018-07-30T08:12:20.631Z,12876
2018-07-30T08:13:20.107Z,12772
2018-07-30T08:14:20.362Z,12732
2018-07-30T08:15:20.391Z,12660
2018-07-30T08:16:20.291Z,12632
2018-07-30T08:17:20.393Z,12548
2018-07-30T08:18:20.668Z,12448
2018-07-30T08:19:20.682Z,12396
2018-07-30T08:20:20.438Z,12304
2018-07-30T08:21:20.436Z,12244
2018-07-30T08:22:20.695Z,12160
2018-07-30T08:23:20.236Z,12072
2018-07-30T08:24:20.741Z,12020
2018-07-30T08:25:20.486Z,11964
2018-07-30T08:26:20.257Z,11884
2018-07-30T08:27:20.502Z,11836
2018-07-30T08:28:20.518Z,11748
2018-07-30T08:29:20.873Z,11696
2018-07-30T08:30:21.605Z,11604
2018-07-30T08:31:20.594Z,11508
2018-07-30T08:32:20.601Z,11512
2018-07-30T08:33:20.600Z,11476
2018-07-30T08:34:20.849Z,11420
2018-07-30T08:35:20.861Z,11380
2018-07-30T08:36:20.617Z,11300
2018-07-30T08:37:20.628Z,11228
2018-07-30T08:38:20.648Z,11200
2018-07-30T08:39:21.053Z,11128
2018-07-30T08:40:20.920Z,11112
2018-07-30T08:41:20.673Z,11060
2018-07-30T08:42:21.383Z,11000
2018-07-30T08:43:20.700Z,10932
2018-07-30T08:44:20.968Z,10852
2018-07-30T08:45:20.459Z,10776
2018-07-30T08:46:21.023Z,10680
2018-07-30T08:47:20.476Z,10568
2018-07-30T08:48:20.756Z,10496
2018-07-30T08:49:20.515Z,10416
2018-07-30T08:50:20.923Z,10396
2018-07-30T08:51:20.550Z,10316
2018-07-30T08:52:20.536Z,10304
2018-07-30T08:53:20.653Z,10208
2018-07-30T08:54:21.100Z,10144
2018-07-30T08:55:21.113Z,10152
2018-07-30T08:56:21.252Z,10124
2018-07-30T08:57:20.611Z,10140
2018-07-30T08:58:20.627Z,10144
2018-07-30T08:59:20.635Z,10108
2018-07-30T09:00:20.631Z,10112
2018-07-30T09:01:20.920Z,10080
2018-07-30T09:02:21.187Z,10060
2018-07-30T09:03:20.660Z,9980
2018-07-30T09:04:21.209Z,9976
2018-07-30T09:05:20.954Z,9928
2018-07-30T09:06:20.959Z,9932
2018-07-30T09:07:20.466Z,9888
2018-07-30T09:08:20.986Z,9880
2018-07-30T09:09:21.025Z,9796
2018-07-30T09:10:21.019Z,9776
2018-07-30T09:11:21.259Z,9764
2018-07-30T09:12:20.758Z,9724
2018-07-30T09:13:21.281Z,9716
2018-07-30T09:14:20.771Z,9680
2018-07-30T09:15:21.309Z,9680
2018-07-30T09:16:21.307Z,9664
2018-07-30T09:17:21.328Z,9700
2018-07-30T09:18:20.944Z,9728
2018-07-30T09:19:21.072Z,9732
2018-07-30T09:20:20.829Z,9756
2018-07-30T09:21:21.104Z,9776
2018-07-30T09:22:20.847Z,9784
2018-07-30T09:23:21.124Z,9808
2018-07-30T09:24:20.857Z,9796
2018-07-30T09:25:21.408Z,9808
2018-07-30T09:26:21.412Z,9792
2018-07-30T09:27:21.142Z,9784
2018-07-30T09:28:21.429Z,9796
2018-07-30T09:29:21.149Z,9808
2018-07-30T09:30:21.181Z,9800
2018-07-30T09:31:21.182Z,9800
2018-07-30T09:32:20.660Z,9804
2018-07-30T09:33:20.929Z,9824
2018-07-30T09:34:21.188Z,9828
2018-07-30T09:35:22.276Z,9828
2018-07-30T09:36:21.214Z,9824
2018-07-30T09:37:21.205Z,9792
2018-07-30T09:38:21.469Z,9788
2018-07-30T09:39:21.817Z,9788
2018-07-30T09:40:21.495Z,9812
2018-07-30T09:41:21.008Z,9824
2018-07-30T09:42:21.009Z,9824
2018-07-30T09:43:21.264Z,9816
2018-07-30T09:44:21.542Z,9828
2018-07-30T09:45:21.022Z,9812
2018-07-30T09:46:21.011Z,9796
2018-07-30T09:47:20.786Z,9768
2018-07-30T09:48:21.027Z,9720
2018-07-30T09:49:21.299Z,9764
2018-07-30T09:50:21.318Z,9704
2018-07-30T09:51:20.798Z,9672
2018-07-30T09:52:21.378Z,9664
2018-07-30T09:53:21.082Z,9632
2018-07-30T09:54:21.074Z,9612
2018-07-30T09:55:21.087Z,9596
2018-07-30T09:56:21.577Z,9488
2018-07-30T09:57:21.113Z,9424
2018-07-30T09:58:21.110Z,9348
2018-07-30T09:59:21.363Z,9316
2018-07-30T10:00:21.122Z,9252
2018-07-30T10:01:21.123Z,9208
2018-07-30T10:02:21.640Z,9128
2018-07-30T10:03:21.161Z,9148
2018-07-30T10:04:21.643Z,9096
2018-07-30T10:05:21.686Z,9032
2018-07-30T10:06:22.081Z,9024
2018-07-30T10:07:21.510Z,8988
2018-07-30T10:08:21.685Z,8948
2018-07-30T10:09:20.941Z,8868
2018-07-30T10:10:21.842Z,8904
2018-07-30T10:11:21.720Z,8840
2018-07-30T10:12:21.463Z,8744
2018-07-30T10:13:21.192Z,8720
2018-07-30T10:14:21.457Z,8704
2018-07-30T10:15:22.024Z,8624
2018-07-30T10:16:21.222Z,8580
2018-07-30T10:17:21.231Z,8544
2018-07-30T10:18:22.071Z,8500
2018-07-30T10:19:21.497Z,8476
2018-07-30T10:20:21.508Z,8360
2018-07-30T10:21:21.270Z,8296
2018-07-30T10:22:21.792Z,8324
2018-07-30T10:23:21.799Z,8300
2018-07-30T10:24:21.546Z,8280
2018-07-30T10:25:21.539Z,8228
2018-07-30T10:26:21.297Z,8196
2018-07-30T10:27:21.817Z,8124
2018-07-30T10:28:21.563Z,8108
2018-07-30T10:29:21.877Z,8076
2018-07-30T10:30:21.836Z,8020
2018-07-30T10:31:21.599Z,7988
2018-07-30T10:32:21.590Z,7920
2018-07-30T10:33:21.597Z,7960
2018-07-30T10:34:21.356Z,7932
2018-07-30T10:35:21.607Z,7904
2018-07-30T10:36:21.616Z,7888
2018-07-30T10:37:21.884Z,7836
2018-07-30T10:38:21.674Z,7888
2018-07-30T10:39:21.901Z,7840
2018-07-30T10:40:21.168Z,7824
2018-07-30T10:41:21.922Z,7812
2018-07-30T10:42:21.659Z,7816
2018-07-30T10:43:21.673Z,7804
2018-07-30T10:44:21.663Z,7640
2018-07-30T10:45:21.682Z,7676
2018-07-30T10:46:21.520Z,7708
2018-07-30T10:47:21.690Z,7676
2018-07-30T10:48:21.442Z,7716
2018-07-30T10:49:21.446Z,7728
2018-07-30T10:50:21.464Z,7748
2018-07-30T10:51:21.976Z,7616
2018-07-30T10:52:21.735Z,7768
2018-07-30T10:53:21.480Z,7968
2018-07-30T10:54:21.573Z,8112
2018-07-30T10:55:21.782Z,8116
2018-07-30T10:56:21.749Z,8268
2018-07-30T10:57:22.020Z,8220
2018-07-30T10:58:21.512Z,8092
2018-07-30T10:59:22.026Z,8068
2018-07-30T11:00:21.786Z,7904
2018-07-30T11:01:21.801Z,7864
2018-07-30T11:02:22.067Z,7856
2018-07-30T11:03:21.563Z,7980
2018-07-30T11:04:21.810Z,8064
2018-07-30T11:05:22.077Z,8020
2018-07-30T11:06:22.081Z,7852
2018-07-30T11:07:21.600Z,7680
2018-07-30T11:08:21.859Z,7588
2018-07-30T11:09:21.594Z,7592
2018-07-30T11:10:22.128Z,7596
2018-07-30T11:11:22.131Z,7604
2018-07-30T11:12:21.645Z,7576
2018-07-30T11:13:21.886Z,7520
2018-07-30T11:14:21.645Z,7456
2018-07-30T11:15:22.154Z,7456
2018-07-30T11:16:21.629Z,7456
2018-07-30T11:17:22.209Z,7428
2018-07-30T11:18:21.408Z,7416
2018-07-30T11:19:21.946Z,7360
2018-07-30T11:20:21.930Z,7392
2018-07-30T11:21:22.189Z,7404
2018-07-30T11:22:21.950Z,7376
2018-07-30T11:23:21.690Z,7384
2018-07-30T11:24:21.742Z,7320
2018-07-30T11:25:21.763Z,7304
2018-07-30T11:26:22.240Z,7240
2018-07-30T11:27:21.521Z,7212
2018-07-30T11:28:22.250Z,7152
2018-07-30T11:29:21.742Z,7116
2018-07-30T11:30:21.981Z,7084
2018-07-30T11:31:21.995Z,7076
2018-07-30T11:32:21.799Z,7036
2018-07-30T11:33:22.010Z,7012
2018-07-30T11:34:22.275Z,6984
2018-07-30T11:35:22.298Z,6928
2018-07-30T11:36:22.049Z,6820
2018-07-30T11:37:22.302Z,6816
2018-07-30T11:38:21.534Z,6776
2018-07-30T11:39:22.133Z,6800
2018-07-30T11:40:22.321Z,6764
2018-07-30T11:41:22.064Z,6740
2018-07-30T11:42:21.818Z,6716
2018-07-30T11:43:22.105Z,6676
2018-07-30T11:44:22.350Z,6640
2018-07-30T11:45:21.843Z,6608
2018-07-30T11:46:21.841Z,6624
2018-07-30T11:47:22.155Z,6636
2018-07-30T11:48:21.932Z,6624
2018-07-30T11:49:22.117Z,6604
2018-07-30T11:50:22.113Z,6608
2018-07-30T11:51:21.867Z,6600
2018-07-30T11:52:22.141Z,6580
2018-07-30T11:53:22.405Z,6556
2018-07-30T11:54:22.705Z,6572
2018-07-30T11:55:22.188Z,6568
2018-07-30T11:56:21.916Z,6560
2018-07-30T11:57:22.452Z,6560
2018-07-30T11:58:21.934Z,6540
2018-07-30T11:59:21.931Z,6532
2018-07-30T12:00:22.458Z,6496
2018-07-30T12:01:22.093Z,6468
2018-07-30T12:02:22.217Z,6472
2018-07-30T12:03:22.469Z,6456
2018-07-30T12:04:22.476Z,6432
2018-07-30T12:05:21.988Z,6420
2018-07-30T12:06:22.504Z,6408
2018-07-30T12:07:22.505Z,6404
2018-07-30T12:08:22.263Z,6388
2018-07-30T12:09:22.285Z,6364
2018-07-30T12:10:22.622Z,6360
2018-07-30T12:11:22.278Z,6360
2018-07-30T12:12:22.273Z,6360
2018-07-30T12:13:22.055Z,6372
2018-07-30T12:14:22.035Z,6396
2018-07-30T12:15:22.303Z,6304
2018-07-30T12:16:22.584Z,5844
2018-07-30T12:17:22.335Z,6200
2018-07-30T12:18:22.652Z,6192
2018-07-30T12:19:22.626Z,4248
2018-07-30T12:20:22.345Z,4156
2018-07-30T12:21:22.583Z,4156
2018-07-30T12:22:22.354Z,5420
2018-07-30T12:23:22.597Z,4312
2018-07-30T12:24:22.620Z,5532
2018-07-30T12:25:22.390Z,4452
2018-07-30T12:26:22.368Z,4440
2018-07-30T12:27:22.637Z,6228
2018-07-30T12:28:22.390Z,4764
2018-07-30T12:29:22.392Z,4548
2018-07-30T12:30:21.980Z,4444
2018-07-30T12:31:22.402Z,4384
2018-07-30T12:32:22.682Z,5572
2018-07-30T12:33:22.413Z,5772
2018-07-30T12:34:22.431Z,6192
2018-07-30T12:35:22.701Z,6212
2018-07-30T12:36:23.131Z,6292
2018-07-30T12:37:22.709Z,4844
2018-07-30T12:38:22.714Z,6168
2018-07-30T12:39:22.750Z,6092
2018-07-30T12:40:22.469Z,5276
2018-07-30T12:41:22.484Z,6308
2018-07-30T12:42:22.495Z,6364
2018-07-30T12:43:22.745Z,6336
2018-07-30T12:44:22.743Z,6348
2018-07-30T12:45:22.771Z,6308
2018-07-30T12:46:22.528Z,6228
2018-07-30T12:47:22.557Z,5812
2018-07-30T12:48:22.834Z,4960
2018-07-30T12:49:22.773Z,5608
2018-07-30T12:50:22.878Z,6444
2018-07-30T12:51:22.886Z,5444
2018-07-30T12:52:22.542Z,4660
2018-07-30T12:53:22.869Z,5188
2018-07-30T12:54:22.558Z,4728
2018-07-30T12:55:22.582Z,5012
2018-07-30T12:56:22.842Z,5976
2018-07-30T12:57:22.830Z,4844
2018-07-30T12:58:22.850Z,4816
2018-07-30T12:59:22.853Z,6092
2018-07-30T13:00:22.601Z,5044
2018-07-30T13:01:22.104Z,5292
2018-07-30T13:02:22.366Z,6624
2018-07-30T13:03:23.204Z,6664
2018-07-30T13:04:22.658Z,6652
2018-07-30T13:05:22.636Z,6668
2018-07-30T13:06:22.913Z,6652
2018-07-30T13:07:22.895Z,6592
2018-07-30T13:08:22.192Z,6508
2018-07-30T13:09:22.658Z,6464
2018-07-30T13:10:22.927Z,6444
2018-07-30T13:11:22.935Z,6428
2018-07-30T13:12:22.676Z,6304
2018-07-30T13:13:22.959Z,6384
2018-07-30T13:14:22.684Z,6408
2018-07-30T13:15:22.454Z,6432
2018-07-30T13:16:22.973Z,6444
2018-07-30T13:17:22.974Z,6436
2018-07-30T13:18:22.491Z,6420
2018-07-30T13:19:22.737Z,6352
2018-07-30T13:20:23.026Z,5576
2018-07-30T13:21:23.078Z,5500
2018-07-30T13:22:22.496Z,4864
2018-07-30T13:23:22.765Z,5004
2018-07-30T13:24:22.526Z,5104
2018-07-30T13:25:22.822Z,4928
2018-07-30T13:26:23.015Z,4940
2018-07-30T13:27:22.788Z,5500
2018-07-30T13:28:22.796Z,6360
2018-07-30T13:29:23.069Z,6616
2018-07-30T13:30:22.549Z,6744
2018-07-30T13:31:22.805Z,6772
2018-07-30T13:32:22.847Z,6764
2018-07-30T13:33:22.833Z,6704
2018-07-30T13:34:23.117Z,6616